Time;durP1;ratioP1;P1;durP2;ratioP2;P2;SDS_P1;SDS_P2;PMS_P1;PMS_P2;Temp;Humidity;BMP_temperature;BMP_pressure;BME280_temperature;BME280_humidity;BME280_pressure;Samples;Min_cycle;Max_cycle;Signal;HPM_P1;HPM_P2
2023/04/13 00:00:28;;;;;;;5.55;0.70;;;;;;;;;;5058986;27;96452;-80
2023/04/13 00:02:54;;;;;;;2.60;0.80;;;;;;;;;;5040325;27;92049;-79
2023/04/13 00:05:22;;;;;;;1.42;0.60;;;;;;;;;;5039748;27;92227;-79
2023/04/13 00:07:50;;;;;;;3.42;0.90;;;;;;;;;;5040830;27;95115;-79
2023/04/13 00:10:17;;;;;;;2.25;0.82;;;;;;;;;;5052860;27;92562;-79
2023/04/13 00:12:47;;;;;;;4.28;0.90;;;;;;;;;;5040770;27;94963;-79
2023/04/13 00:15:14;;;;;;;4.35;0.90;;;;;;;;;;5060017;27;93057;-78
2023/04/13 00:17:44;;;;;;;3.40;0.90;;;;;;;;;;5045593;27;92172;-78
2023/04/13 00:20:14;;;;;;;4.15;0.80;;;;;;;;;;5037086;27;95048;-79
2023/04/13 00:22:41;;;;;;;2.55;0.80;;;;;;;;;;5028720;27;92381;-79
2023/04/13 00:25:09;;;;;;;;;;;;;;;;;;5022715;28;92859;-79
2023/04/13 00:27:38;;;;;;;2.95;0.60;;;;;;;;;;5040299;27;104617;-79
2023/04/13 00:30:06;;;;;;;3.35;0.90;;;;;;;;;;5049631;27;92558;-78
2023/04/13 00:32:33;;;;;;;2.67;0.80;;;;;;;;;;5003014;28;94780;-78
2023/04/13 00:34:59;;;;;;;1.88;0.80;;;;;;;;;;5039447;27;93170;-78
2023/04/13 00:37:29;;;;;;;2.10;0.88;;;;;;;;;;5051312;27;92045;-77
2023/04/13 00:39:55;;;;;;;;;;;;;;;;;;5045069;27;93101;-78
2023/04/13 00:42:21;;;;;;;8.02;0.90;;;;;;;;;;5045566;27;106011;-78
2023/04/13 00:44:48;;;;;;;3.83;0.70;;;;;;;;;;5053685;27;93359;-78
2023/04/13 00:47:16;;;;;;;3.00;0.82;;;;;;;;;;5041658;27;93751;-79
2023/04/13 00:49:43;;;;;;;2.88;0.70;;;;;;;;;;5048586;27;91388;-78
2023/04/13 00:52:11;;;;;;;3.15;0.80;;;;;;;;;;5055874;27;92627;-78
2023/04/13 00:58:31;;;;;;;3.28;0.90;;;;;;;;;;5049487;27;94560;-78
2023/04/13 01:00:58;;;;;;;2.65;0.70;;;;;;;;;;5022722;27;94523;-79
2023/04/13 01:03:26;;;;;;;2.72;0.70;;;;;;;;;;5025823;28;92725;-79
2023/04/13 01:06:12;;;;;;;2.40;0.80;;;;;;;;;;5030463;28;94954;-78
2023/04/13 01:08:50;;;;;;;3.65;0.70;;;;;;;;;;5032670;27;99303;-79
2023/04/13 01:11:38;;;;;;;1.88;0.60;;;;;;;;;;5042849;27;92416;-79
2023/04/13 01:14:04;;;;;;;3.55;0.90;;;;;;;;;;5032664;28;92756;-80
2023/04/13 01:16:37;;;;;;;2.97;0.63;;;;;;;;;;5020623;27;94455;-79
2023/04/13 01:19:05;;;;;;;4.32;0.88;;;;;;;;;;5015941;28;92763;-80
2023/04/13 01:21:32;;;;;;;2.25;0.70;;;;;;;;;;5012696;28;94840;-79
2023/04/13 01:23:58;;;;;;;3.47;0.70;;;;;;;;;;5034631;28;94849;-80
2023/04/13 01:26:30;;;;;;;2.85;0.75;;;;;;;;;;5044861;27;92422;-80
2023/04/13 01:28:57;;;;;;;1.20;0.60;;;;;;;;;;5044223;27;95431;-79
2023/04/13 01:31:23;;;;;;;2.33;0.85;;;;;;;;;;5043914;27;92193;-79
2023/04/13 01:33:51;;;;;;;2.17;0.70;;;;;;;;;;5044030;27;95126;-80
2023/04/13 01:36:18;;;;;;;1.13;0.70;;;;;;;;;;5043423;27;93140;-80
2023/04/13 01:38:45;;;;;;;1.50;0.60;;;;;;;;;;5062686;27;92271;-80
2023/04/13 01:41:14;;;;;;;1.95;0.80;;;;;;;;;;5044232;27;95176;-80
2023/04/13 01:43:44;;;;;;;1.88;0.65;;;;;;;;;;5042711;27;92615;-80
2023/04/13 01:46:15;;;;;;;1.40;0.70;;;;;;;;;;5022546;27;92905;-79
2023/04/13 01:48:57;;;;;;;2.50;0.77;;;;;;;;;;5025761;28;95142;-80
2023/04/13 01:51:44;;;;;;;1.25;0.60;;;;;;;;;;5040723;27;92431;-79
2023/04/13 01:54:18;;;;;;;1.33;0.63;;;;;;;;;;5043172;27;94096;-79
2023/04/13 01:56:47;;;;;;;3.08;0.80;;;;;;;;;;5020484;28;94980;-79
2023/04/13 01:59:15;;;;;;;;;;;;;;;;;;5014575;28;92124;-79
2023/04/13 02:01:42;;;;;;;2.83;0.70;;;;;;;;;;5041823;28;94682;-79
2023/04/13 02:04:09;;;;;;;3.72;1.00;;;;;;;;;;5006161;28;95380;-79
2023/04/13 02:06:39;;;;;;;2.35;0.70;;;;;;;;;;5023637;28;91376;-79
2023/04/13 02:09:06;;;;;;;2.50;1.00;;;;;;;;;;5031261;28;93908;-79
2023/04/13 02:11:33;;;;;;;2.13;0.60;;;;;;;;;;5044207;27;92256;-80
2023/04/13 02:14:02;;;;;;;3.25;0.60;;;;;;;;;;5041568;27;101087;-80
2023/04/13 02:16:29;;;;;;;2.58;0.80;;;;;;;;;;5042933;27;94794;-80
2023/04/13 02:18:57;;;;;;;1.40;0.45;;;;;;;;;;5043560;27;92145;-80
2023/04/13 02:21:24;;;;;;;2.67;0.80;;;;;;;;;;5043514;27;92735;-80
2023/04/13 02:23:51;;;;;;;3.72;0.60;;;;;;;;;;5061824;27;93338;-80
2023/04/13 02:26:20;;;;;;;1.40;0.63;;;;;;;;;;5042425;27;92142;-79
2023/04/13 02:28:48;;;;;;;1.40;0.60;;;;;;;;;;5054553;27;92431;-80
2023/04/13 02:31:15;;;;;;;1.92;0.70;;;;;;;;;;5026909;28;94398;-79
2023/04/13 02:33:43;;;;;;;1.77;0.80;;;;;;;;;;5056945;27;92058;-79
2023/04/13 02:36:10;;;;;;;2.22;0.80;;;;;;;;;;5040174;27;92746;-79
2023/04/13 02:38:44;;;;;;;;;;;;;;;;;;5056186;27;94677;-79
2023/04/13 02:41:21;;;;;;;4.03;0.90;;;;;;;;;;5041834;27;96662;-79
2023/04/13 02:43:49;;;;;;;6.25;1.20;;;;;;;;;;5037792;28;92897;-79
2023/04/13 02:46:17;;;;;;;4.40;0.90;;;;;;;;;;5019906;28;92380;-79
2023/04/13 02:48:44;;;;;;;2.58;0.90;;;;;;;;;;5030951;27;92108;-79
2023/04/13 02:51:11;;;;;;;3.42;1.02;;;;;;;;;;5042462;27;94767;-79
2023/04/13 02:53:40;;;;;;;3.60;1.08;;;;;;;;;;5043147;28;92278;-79
2023/04/13 02:56:08;;;;;;;5.57;1.02;;;;;;;;;;5021510;27;94369;-79
2023/04/13 02:58:35;;;;;;;2.90;1.00;;;;;;;;;;5004113;28;92400;-78
2023/04/13 03:01:06;;;;;;;3.17;1.00;;;;;;;;;;5039286;27;94236;-78
2023/04/13 03:03:34;;;;;;;4.22;1.00;;;;;;;;;;5059678;27;94400;-78
2023/04/13 03:06:01;;;;;;;2.85;1.02;;;;;;;;;;5043183;27;92475;-79
2023/04/13 03:08:44;;;;;;;4.75;1.17;;;;;;;;;;5024530;28;96563;-79
2023/04/13 03:11:22;;;;;;;4.90;1.00;;;;;;;;;;5038442;27;95546;-79
2023/04/13 03:14:11;;;;;;;3.80;0.98;;;;;;;;;;5040361;27;92640;-78
2023/04/13 03:16:39;;;;;;;6.68;1.10;;;;;;;;;;5025441;28;95482;-79
2023/04/13 03:19:06;;;;;;;3.63;1.00;;;;;;;;;;5056409;27;92130;-78
2023/04/13 03:21:34;;;;;;;;;;;;;;;;;;5040016;28;94007;-78
2023/04/13 03:24:06;;;;;;;3.55;1.00;;;;;;;;;;5043188;27;94982;-79
2023/04/13 03:26:33;;;;;;;3.45;0.75;;;;;;;;;;5042336;27;92058;-78
2023/04/13 03:29:03;;;;;;;3.10;0.75;;;;;;;;;;5041137;27;94654;-78
2023/04/13 03:31:34;;;;;;;5.03;1.00;;;;;;;;;;5022888;28;93879;-78
2023/04/13 03:34:01;;;;;;;3.15;0.80;;;;;;;;;;5042045;27;92152;-78
2023/04/13 03:36:28;;;;;;;3.33;0.73;;;;;;;;;;5044611;27;99614;-79
2023/04/13 03:38:56;;;;;;;3.45;0.60;;;;;;;;;;5042111;27;92486;-79
2023/04/13 03:41:26;;;;;;;5.53;0.90;;;;;;;;;;5027317;28;94586;-79
2023/04/13 03:43:52;;;;;;;6.45;0.90;;;;;;;;;;5053937;27;93183;-79
2023/04/13 03:46:18;;;;;;;5.07;1.05;;;;;;;;;;5059925;27;92027;-79
2023/04/13 03:48:45;;;;;;;4.88;0.80;;;;;;;;;;5034398;28;94359;-80
2023/04/13 03:51:17;;;;;;;2.50;0.70;;;;;;;;;;5036697;27;92890;-79
2023/04/13 03:53:47;;;;;;;3.28;0.73;;;;;;;;;;5053893;27;94726;-80
2023/04/13 03:56:16;;;;;;;3.78;0.90;;;;;;;;;;5040204;27;97571;-80
2023/04/13 03:58:43;;;;;;;3.53;0.65;;;;;;;;;;5041815;28;95233;-80
2023/04/13 04:01:12;;;;;;;3.08;0.60;;;;;;;;;;5041809;27;94334;-80
2023/04/13 04:03:43;;;;;;;3.95;0.77;;;;;;;;;;5042187;27;95834;-80
2023/04/13 04:06:10;;;;;;;2.50;0.60;;;;;;;;;;5040795;27;92558;-80
2023/04/13 04:08:42;;;;;;;6.60;0.70;;;;;;;;;;5042234;27;94487;-79
2023/04/13 04:11:21;;;;;;;4.43;0.77;;;;;;;;;;5044383;27;94328;-80
2023/04/13 04:13:47;;;;;;;3.45;0.68;;;;;;;;;;5042240;27;92090;-80
2023/04/13 04:16:14;;;;;;;5.35;0.90;;;;;;;;;;5040657;27;92715;-80
2023/04/13 04:18:45;;;;;;;5.47;1.00;;;;;;;;;;5039927;27;97930;-79
2023/04/13 04:21:14;;;;;;;2.40;0.60;;;;;;;;;;5044839;27;93180;-79
2023/04/13 04:23:41;;;;;;;5.30;0.70;;;;;;;;;;5041536;27;95293;-79
2023/04/13 04:26:07;;;;;;;4.55;0.80;;;;;;;;;;5041386;27;92982;-79
2023/04/13 04:28:49;;;;;;;5.18;0.70;;;;;;;;;;5060079;27;92318;-79
2023/04/13 04:31:20;;;;;;;5.70;1.08;;;;;;;;;;5024814;27;95144;-79
2023/04/13 04:33:51;;;;;;;3.05;0.70;;;;;;;;;;5060084;27;92405;-79
2023/04/13 04:36:19;;;;;;;3.47;0.70;;;;;;;;;;5024148;27;92399;-79
2023/04/13 04:39:00;;;;;;;3.20;0.73;;;;;;;;;;5038165;28;93104;-79
2023/04/13 04:41:32;;;;;;;3.42;0.82;;;;;;;;;;5037706;27;92113;-79
2023/04/13 04:44:02;;;;;;;2.15;0.77;;;;;;;;;;5042777;27;95084;-79
2023/04/13 04:46:37;;;;;;;4.55;0.98;;;;;;;;;;5022275;28;92485;-79
2023/04/13 04:49:08;;;;;;;3.70;0.90;;;;;;;;;;5055460;27;94729;-79
2023/04/13 04:51:35;;;;;;;3.20;1.00;;;;;;;;;;5037422;27;95040;-80
2023/04/13 04:54:02;;;;;;;4.28;0.90;;;;;;;;;;5037934;28;92325;-79
2023/04/13 04:56:29;;;;;;;4.97;0.82;;;;;;;;;;5017477;28;99775;-79
2023/04/13 04:58:56;;;;;;;6.03;1.00;;;;;;;;;;5028678;28;94617;-79
2023/04/13 05:01:33;;;;;;;2.80;0.75;;;;;;;;;;5041077;27;91643;-80
2023/04/13 05:04:06;;;;;;;2.67;0.80;;;;;;;;;;5039742;27;92533;-79
2023/04/13 05:06:39;;;;;;;3.97;0.88;;;;;;;;;;5040087;28;94194;-79
2023/04/13 05:09:08;;;;;;;2.40;0.77;;;;;;;;;;5039258;27;95354;-79
2023/04/13 05:11:37;;;;;;;5.50;1.00;;;;;;;;;;5036045;27;95014;-79
2023/04/13 05:14:07;;;;;;;5.03;1.00;;;;;;;;;;5036156;27;92490;-79
2023/04/13 05:16:34;;;;;;;3.45;0.80;;;;;;;;;;5023482;27;94813;-78
2023/04/13 05:19:09;;;;;;;3.45;0.95;;;;;;;;;;5036825;28;95522;-80
2023/04/13 05:21:46;;;;;;;2.97;0.90;;;;;;;;;;5040235;27;92166;-78
2023/04/13 05:24:12;;;;;;;4.63;1.02;;;;;;;;;;5059095;27;93829;-77
2023/04/13 05:26:41;;;;;;;7.43;1.08;;;;;;;;;;5040256;27;92630;-77
2023/04/13 05:29:08;;;;;;;5.80;1.15;;;;;;;;;;5043977;27;92138;-79
2023/04/13 05:31:39;;;;;;;7.65;1.10;;;;;;;;;;5042205;27;95102;-78
2023/04/13 05:34:06;;;;;;;5.22;1.20;;;;;;;;;;5024552;27;94663;-78
2023/04/13 05:36:33;;;;;;;16.60;1.40;;;;;;;;;;5043517;27;95250;-78
2023/04/13 05:39:04;;;;;;;8.73;1.20;;;;;;;;;;5032881;28;92785;-79
2023/04/13 05:41:32;;;;;;;;;;;;;;;;;;5042565;27;92270;-78
2023/04/13 05:43:59;;;;;;;9.77;1.73;;;;;;;;;;5045858;27;93059;-79
2023/04/13 05:46:26;;;;;;;;;;;;;;;;;;5042884;27;94804;-79
2023/04/13 05:48:53;;;;;;;6.05;1.23;;;;;;;;;;5058504;27;93082;-79
2023/04/13 05:51:20;;;;;;;6.82;1.25;;;;;;;;;;5052443;27;93166;-77
2023/04/13 05:53:46;;;;;;;6.88;1.00;;;;;;;;;;5062400;27;92428;-78
2023/04/13 05:56:13;;;;;;;5.32;1.00;;;;;;;;;;5042529;27;93740;-77
2023/04/13 05:58:41;;;;;;;8.63;1.10;;;;;;;;;;5059509;27;95138;-79
2023/04/13 06:01:18;;;;;;;4.93;1.00;;;;;;;;;;5027351;27;92037;-78
2023/04/13 06:03:45;;;;;;;3.50;1.02;;;;;;;;;;5043603;27;93032;-78
2023/04/13 06:06:12;;;;;;;5.90;1.10;;;;;;;;;;5041612;27;95322;-78
2023/04/13 06:08:41;;;;;;;5.45;0.98;;;;;;;;;;5042944;27;92149;-78
2023/04/13 06:11:08;;;;;;;4.07;1.00;;;;;;;;;;5045713;27;95294;-78
2023/04/13 06:13:35;;;;;;;5.72;1.00;;;;;;;;;;5013651;28;92190;-78
2023/04/13 06:16:01;;;;;;;3.65;0.95;;;;;;;;;;5023016;27;95152;-78
2023/04/13 06:18:28;;;;;;;5.35;1.00;;;;;;;;;;5061050;27;96845;-78
2023/04/13 06:20:56;;;;;;;3.70;0.88;;;;;;;;;;5061630;27;92172;-78
2023/04/13 06:23:23;;;;;;;4.55;1.15;;;;;;;;;;5060108;27;94935;-77
2023/04/13 06:25:53;;;;;;;13.55;1.10;;;;;;;;;;5024508;27;93144;-77
2023/04/13 06:28:31;;;;;;;3.95;1.10;;;;;;;;;;5035829;27;92638;-78
2023/04/13 06:30:57;;;;;;;4.70;0.90;;;;;;;;;;5042622;27;94798;-78
2023/04/13 06:33:25;;;;;;;3.50;0.85;;;;;;;;;;5045703;27;95550;-80
2023/04/13 06:35:52;;;;;;;3.40;0.90;;;;;;;;;;5026170;27;94851;-77
2023/04/13 06:38:20;;;;;;;4.25;0.95;;;;;;;;;;5041772;27;94016;-77
2023/04/13 06:40:59;;;;;;;3.65;0.73;;;;;;;;;;5026096;27;91466;-77
2023/04/13 06:43:26;;;;;;;3.17;0.90;;;;;;;;;;5024608;27;92255;-77
2023/04/13 06:46:13;;;;;;;3.25;0.80;;;;;;;;;;5055974;27;92318;-77
2023/04/13 06:48:44;;;;;;;3.83;0.90;;;;;;;;;;5041086;27;94855;-78
2023/04/13 06:51:11;;;;;;;3.70;0.90;;;;;;;;;;5042328;27;94986;-78
2023/04/13 06:53:40;;;;;;;5.03;0.90;;;;;;;;;;5042413;27;94961;-77
2023/04/13 06:56:07;;;;;;;4.85;0.88;;;;;;;;;;5044196;27;92297;-76
2023/04/13 06:58:35;;;;;;;5.07;1.15;;;;;;;;;;5042345;27;92697;-78
2023/04/13 07:01:02;;;;;;;4.53;0.90;;;;;;;;;;5042129;27;92191;-77
2023/04/13 07:03:32;;;;;;;4.95;0.90;;;;;;;;;;5042515;27;95843;-76
2023/04/13 07:06:03;;;;;;;4.57;0.85;;;;;;;;;;5042247;27;93186;-79
2023/04/13 07:08:31;;;;;;;5.68;0.90;;;;;;;;;;5042435;27;92412;-80
2023/04/13 07:10:58;;;;;;;4.63;0.80;;;;;;;;;;5023442;28;94985;-79
2023/04/13 07:13:36;;;;;;;3.97;0.95;;;;;;;;;;5011493;27;97294;-80
2023/04/13 07:16:07;;;;;;;3.22;1.00;;;;;;;;;;5021109;27;92267;-80
2023/04/13 07:18:36;;;;;;;5.97;1.00;;;;;;;;;;5044405;27;94711;-79
2023/04/13 07:21:03;;;;;;;5.13;1.10;;;;;;;;;;5041946;27;92440;-79
2023/04/13 07:23:41;;;;;;;4.65;1.00;;;;;;;;;;5042130;27;94601;-79
2023/04/13 07:26:14;;;;;;;4.75;0.85;;;;;;;;;;5040667;27;95209;-79
2023/04/13 07:28:41;;;;;;;2.55;0.80;;;;;;;;;;5042146;27;92500;-80
2023/04/13 07:31:10;;;;;;;4.40;0.90;;;;;;;;;;5022438;27;95031;-80
2023/04/13 07:33:38;;;;;;;4.25;0.88;;;;;;;;;;5031972;28;93648;-80
2023/04/13 07:36:06;;;;;;;2.42;0.80;;;;;;;;;;5020197;27;92235;-80
2023/04/13 07:38:33;;;;;;;3.67;0.80;;;;;;;;;;5025196;27;94862;-79
2023/04/13 07:41:00;;;;;;;2.85;0.73;;;;;;;;;;5042916;27;96099;-78
2023/04/13 07:43:30;;;;;;;4.78;0.73;;;;;;;;;;5042056;27;95162;-78
2023/04/13 07:45:59;;;;;;;6.55;1.00;;;;;;;;;;5041170;27;92745;-78
2023/04/13 07:48:26;;;;;;;9.70;0.98;;;;;;;;;;5041370;27;92287;-79
2023/04/13 07:50:54;;;;;;;3.03;0.80;;;;;;;;;;5041503;27;92193;-78
2023/04/13 07:53:22;;;;;;;2.67;0.60;;;;;;;;;;5040823;27;92720;-79
2023/04/13 07:55:48;;;;;;;2.95;0.93;;;;;;;;;;5060737;27;91535;-79
2023/04/13 07:58:15;;;;;;;2.03;0.57;;;;;;;;;;5023983;27;94066;-79
2023/04/13 08:00:41;;;;;;;2.63;0.60;;;;;;;;;;5044303;27;94688;-79
2023/04/13 08:03:08;;;;;;;2.92;0.77;;;;;;;;;;5058749;27;94878;-78
2023/04/13 08:05:35;;;;;;;2.55;0.70;;;;;;;;;;5041275;27;95195;-79
2023/04/13 08:08:02;;;;;;;3.17;0.70;;;;;;;;;;5023922;27;92092;-79
2023/04/13 08:10:29;;;;;;;2.13;0.80;;;;;;;;;;5053985;27;95037;-79
2023/04/13 08:12:59;;;;;;;3.67;0.70;;;;;;;;;;5037704;27;95125;-80
2023/04/13 08:15:26;;;;;;;3.25;0.80;;;;;;;;;;5037490;27;92868;-80
2023/04/13 08:17:53;;;;;;;2.50;0.80;;;;;;;;;;5037650;27;95385;-80
2023/04/13 08:20:21;;;;;;;2.50;0.65;;;;;;;;;;5032781;27;94774;-80
2023/04/13 08:22:49;;;;;;;1.77;0.55;;;;;;;;;;5040409;27;92246;-81
2023/04/13 08:25:19;;;;;;;4.78;0.70;;;;;;;;;;5037401;28;92778;-81
2023/04/13 08:27:45;;;;;;;1.17;0.60;;;;;;;;;;5036159;28;95003;-81
2023/04/13 08:30:13;;;;;;;;;;;;;;;;;;5034270;27;96822;-80
2023/04/13 08:32:47;;;;;;;4.10;0.75;;;;;;;;;;5021215;28;94553;-81
2023/04/13 08:35:14;;;;;;;3.00;0.80;;;;;;;;;;5044318;27;92463;-81
2023/04/13 08:37:41;;;;;;;2.65;0.50;;;;;;;;;;5035234;28;95145;-82
2023/04/13 08:40:12;;;;;;;7.25;0.90;;;;;;;;;;5014170;28;95672;-81
2023/04/13 08:42:40;;;;;;;4.80;0.88;;;;;;;;;;5036741;27;92659;-82
2023/04/13 08:45:08;;;;;;;2.60;0.82;;;;;;;;;;5037115;28;93661;-82
2023/04/13 08:47:38;;;;;;;3.28;0.75;;;;;;;;;;5036613;28;92577;-83
2023/04/13 08:50:06;;;;;;;4.32;0.80;;;;;;;;;;5030950;27;95163;-82
2023/04/13 08:52:37;;;;;;;3.65;0.82;;;;;;;;;;5034243;27;97523;-81
2023/04/13 08:55:04;;;;;;;5.35;0.88;;;;;;;;;;5054405;27;92037;-82
2023/04/13 08:57:33;;;;;;;3.38;0.90;;;;;;;;;;5054390;27;94710;-82
2023/04/13 09:00:00;;;;;;;3.70;0.80;;;;;;;;;;5034726;28;95213;-82
2023/04/13 09:02:30;;;;;;;3.00;0.77;;;;;;;;;;5036302;27;92406;-82
2023/04/13 09:05:04;;;;;;;2.92;0.88;;;;;;;;;;5023114;28;95492;-83
2023/04/13 09:07:33;;;;;;;4.20;0.95;;;;;;;;;;5017669;28;95448;-81
2023/04/13 09:10:06;;;;;;;4.30;0.90;;;;;;;;;;5041541;27;94294;-79
2023/04/13 09:12:33;;;;;;;4.28;0.90;;;;;;;;;;5040284;27;92942;-81
2023/04/13 09:15:02;;;;;;;4.88;0.90;;;;;;;;;;5037006;28;92421;-80
2023/04/13 09:17:33;;;;;;;3.25;0.80;;;;;;;;;;5038456;27;94658;-80
2023/04/13 09:20:23;;;;;;;3.47;0.82;;;;;;;;;;5035841;28;95407;-80
2023/04/13 09:22:50;;;;;;;4.25;0.80;;;;;;;;;;5031210;27;93284;-79
2023/04/13 09:25:24;;;;;;;2.80;0.80;;;;;;;;;;5041695;27;92410;-80
2023/04/13 09:27:53;;;;;;;2.80;0.85;;;;;;;;;;5042578;27;92877;-80
2023/04/13 09:30:23;;;;;;;4.57;0.80;;;;;;;;;;5044652;27;92576;-82
2023/04/13 09:33:06;;;;;;;4.90;1.05;;;;;;;;;;5046601;27;92699;-81
2023/04/13 09:35:33;;;;;;;3.33;0.75;;;;;;;;;;5038473;27;91850;-81
2023/04/13 09:38:00;;;;;;;5.20;1.00;;;;;;;;;;5040710;27;92762;-80
2023/04/13 09:40:26;;;;;;;3.58;0.88;;;;;;;;;;5036291;27;93174;-81
2023/04/13 09:42:54;;;;;;;4.10;1.10;;;;;;;;;;5056282;27;95218;-79
2023/04/13 09:45:21;;;;;;;3.50;0.90;;;;;;;;;;5043032;27;94176;-80
2023/04/13 09:47:47;;;;;;;3.05;0.75;;;;;;;;;;5020362;28;95749;-80
2023/04/13 09:50:22;;;;;;;2.65;0.90;;;;;;;;;;5023314;27;92170;-81
2023/04/13 09:53:01;;;;;;;3.83;0.80;;;;;;;;;;5041505;27;92337;-80
2023/04/13 09:55:28;;;;;;;2.80;0.80;;;;;;;;;;5042947;27;93090;-79
2023/04/13 09:57:55;;;;;;;2.88;0.90;;;;;;;;;;5021113;28;92924;-79
2023/04/13 10:00:22;;;;;;;3.03;0.82;;;;;;;;;;5034862;27;92349;-79
2023/04/13 10:02:49;;;;;;;3.42;0.90;;;;;;;;;;5020236;28;93038;-80
2023/04/13 10:05:19;;;;;;;5.28;1.15;;;;;;;;;;5022151;27;92772;-80
2023/04/13 10:07:46;;;;;;;3.85;0.90;;;;;;;;;;5027093;28;97708;-82
2023/04/13 10:10:13;;;;;;;3.47;0.93;;;;;;;;;;5031006;27;92872;-79
2023/04/13 10:12:47;;;;;;;5.65;1.10;;;;;;;;;;5041855;27;94260;-81
2023/04/13 10:15:23;;;;;;;5.57;1.10;;;;;;;;;;5032979;27;92834;-82
2023/04/13 10:17:52;;;;;;;3.80;0.95;;;;;;;;;;5027942;28;92141;-83
2023/04/13 10:20:20;;;;;;;6.18;1.10;;;;;;;;;;5039094;27;95222;-80
2023/04/13 10:22:47;;;;;;;7.40;1.17;;;;;;;;;;5031506;27;92527;-80
2023/04/13 10:25:14;;;;;;;;;;;;;;;;;;5027606;28;92426;-80
2023/04/13 10:27:56;;;;;;;5.18;1.08;;;;;;;;;;5040189;28;93378;-80
2023/04/13 10:30:22;;;;;;;4.93;1.00;;;;;;;;;;5029886;27;99651;-80
2023/04/13 10:33:00;;;;;;;4.57;0.93;;;;;;;;;;5037863;27;94990;-81
2023/04/13 10:35:27;;;;;;;5.18;0.90;;;;;;;;;;5040796;28;95056;-80
2023/04/13 10:37:56;;;;;;;3.63;0.70;;;;;;;;;;5037787;27;93651;-80
2023/04/13 10:40:23;;;;;;;4.78;1.00;;;;;;;;;;5038563;27;92685;-80
2023/04/13 10:42:50;;;;;;;2.50;0.75;;;;;;;;;;5039287;27;92066;-80
2023/04/13 10:45:20;;;;;;;3.28;0.80;;;;;;;;;;5055767;27;92506;-80
2023/04/13 10:47:46;;;;;;;5.00;1.33;;;;;;;;;;5055684;27;92672;-80
2023/04/13 10:50:17;;;;;;;4.55;1.00;;;;;;;;;;5040964;27;91723;-80
2023/04/13 10:53:06;;;;;;;3.95;1.00;;;;;;;;;;5039454;27;92538;-80
2023/04/13 10:55:33;;;;;;;3.53;0.98;;;;;;;;;;5038653;28;92681;-80
2023/04/13 10:58:00;;;;;;;4.32;0.95;;;;;;;;;;5041751;27;94492;-80
2023/04/13 11:00:28;;;;;;;;;;;;;;;;;;5024328;28;95208;-80
2023/04/13 11:03:15;;;;;;;3.22;0.90;;;;;;;;;;5023846;28;92156;-79
2023/04/13 11:05:47;;;;;;;4.47;1.05;;;;;;;;;;5039177;28;92917;-80
2023/04/13 11:08:18;;;;;;;4.38;0.80;;;;;;;;;;5039412;27;92158;-80
2023/04/13 11:10:51;;;;;;;3.03;1.00;;;;;;;;;;5055443;27;92755;-80
2023/04/13 11:13:18;;;;;;;6.22;0.90;;;;;;;;;;5039531;28;92962;-80
2023/04/13 11:15:45;;;;;;;4.47;1.00;;;;;;;;;;5029093;28;92351;-80
2023/04/13 11:18:12;;;;;;;4.60;1.10;;;;;;;;;;5054345;27;92228;-80
2023/04/13 11:20:39;;;;;;;4.38;1.00;;;;;;;;;;5041436;28;95087;-80
2023/04/13 11:23:12;;;;;;;3.00;1.00;;;;;;;;;;5036609;27;94459;-80
2023/04/13 11:25:48;;;;;;;3.38;1.00;;;;;;;;;;5038431;27;97042;-80
2023/04/13 11:28:14;;;;;;;5.07;0.90;;;;;;;;;;5034389;28;92746;-80
2023/04/13 11:30:41;;;;;;;4.85;0.98;;;;;;;;;;5039820;27;92441;-80
2023/04/13 11:33:08;;;;;;;3.75;1.02;;;;;;;;;;5039707;27;92277;-80
2023/04/13 11:35:42;;;;;;;4.22;1.15;;;;;;;;;;5039548;27;92912;-80
2023/04/13 11:38:16;;;;;;;;;;;;;;;;;;5038942;27;92124;-80
2023/04/13 11:40:44;;;;;;;4.90;1.05;;;;;;;;;;5040052;28;92763;-80
2023/04/13 11:43:13;;;;;;;4.13;1.15;;;;;;;;;;5042843;27;92667;-80
2023/04/13 11:45:41;;;;;;;4.05;0.98;;;;;;;;;;5039866;27;92512;-80
2023/04/13 11:48:08;;;;;;;3.50;1.08;;;;;;;;;;5035654;27;98087;-80
2023/04/13 11:50:39;;;;;;;4.72;0.93;;;;;;;;;;5038090;28;92471;-80
2023/04/13 11:53:06;;;;;;;4.97;1.13;;;;;;;;;;5055024;27;92754;-80
2023/04/13 11:55:34;;;;;;;4.93;0.90;;;;;;;;;;5039705;27;93575;-80
2023/04/13 11:58:19;;;;;;;4.95;1.08;;;;;;;;;;5037382;27;92374;-81
2023/04/13 12:00:47;;;;;;;6.13;1.15;;;;;;;;;;5039252;27;92533;-80
2023/04/13 12:03:14;;;;;;;3.72;1.00;;;;;;;;;;5039555;27;92665;-80
2023/04/13 12:06:00;;;;;;;5.15;1.30;;;;;;;;;;5042920;27;91260;-80
2023/04/13 12:08:28;;;;;;;;;;;;;;;;;;5037245;28;97072;-80
2023/04/13 12:11:00;;;;;;;3.92;0.90;;;;;;;;;;5035202;27;98004;-80
2023/04/13 12:13:40;;;;;;;5.90;1.15;;;;;;;;;;5037881;27;94637;-80
2023/04/13 12:16:24;;;;;;;5.80;1.20;;;;;;;;;;5037969;27;92584;-80
2023/04/13 12:19:11;;;;;;;4.82;1.20;;;;;;;;;;5039210;27;92422;-80
2023/04/13 12:21:48;;;;;;;4.75;1.00;;;;;;;;;;5037071;27;92399;-80
2023/04/13 12:24:15;;;;;;;3.55;1.00;;;;;;;;;;5036829;27;93181;-80
2023/04/13 12:26:42;;;;;;;5.82;1.20;;;;;;;;;;5041417;27;92926;-80
2023/04/13 12:29:28;;;;;;;5.45;1.17;;;;;;;;;;5037702;28;95905;-80
2023/04/13 12:32:00;;;;;;;6.22;1.20;;;;;;;;;;5021337;28;92426;-80
2023/04/13 12:34:26;;;;;;;3.67;0.80;;;;;;;;;;5053525;27;92317;-80
2023/04/13 12:36:53;;;;;;;5.75;1.13;;;;;;;;;;5038420;27;92363;-80
2023/04/13 12:39:20;;;;;;;5.20;1.20;;;;;;;;;;5036083;28;94763;-80
2023/04/13 12:41:46;;;;;;;4.38;1.10;;;;;;;;;;5037584;27;95305;-80
2023/04/13 12:44:13;;;;;;;4.95;1.10;;;;;;;;;;5038404;27;93200;-80
2023/04/13 12:46:41;;;;;;;3.67;1.00;;;;;;;;;;5038521;27;92473;-80
2023/04/13 12:49:07;;;;;;;4.40;1.20;;;;;;;;;;5041564;27;92826;-79
2023/04/13 12:51:34;;;;;;;6.22;1.10;;;;;;;;;;5038750;27;92912;-80
2023/04/13 12:54:00;;;;;;;6.03;1.20;;;;;;;;;;5038955;27;92520;-80
2023/04/13 12:56:27;;;;;;;3.42;1.00;;;;;;;;;;5037994;27;91743;-79
2023/04/13 12:58:53;;;;;;;4.22;1.00;;;;;;;;;;5039188;27;92610;-80
2023/04/13 13:01:20;;;;;;;4.50;1.30;;;;;;;;;;5038811;27;92699;-80
2023/04/13 13:03:47;;;;;;;5.68;1.10;;;;;;;;;;5052245;27;95160;-79
2023/04/13 13:06:14;;;;;;;3.75;0.90;;;;;;;;;;5053101;27;92050;-79
2023/04/13 13:08:40;;;;;;;5.10;1.17;;;;;;;;;;5054697;27;92735;-79
2023/04/13 13:11:07;;;;;;;4.57;1.10;;;;;;;;;;5053770;27;92762;-79
2023/04/13 13:13:34;;;;;;;5.78;1.10;;;;;;;;;;5040834;27;94168;-80
2023/04/13 13:16:00;;;;;;;4.13;1.05;;;;;;;;;;5058537;27;92769;-80
2023/04/13 13:18:26;;;;;;;4.05;0.90;;;;;;;;;;5038735;27;92408;-80
2023/04/13 13:21:12;;;;;;;4.10;1.10;;;;;;;;;;5059967;27;92222;-80
2023/04/13 13:23:38;;;;;;;5.65;0.80;;;;;;;;;;5059956;27;92776;-79
2023/04/13 13:26:05;;;;;;;3.80;1.00;;;;;;;;;;5058101;27;94110;-79
2023/04/13 13:28:39;;;;;;;3.50;1.00;;;;;;;;;;5057449;27;94721;-80
2023/04/13 13:31:07;;;;;;;3.88;1.00;;;;;;;;;;5058102;27;93274;-80
2023/04/13 13:33:35;;;;;;;3.33;0.85;;;;;;;;;;5031317;28;92234;-80
2023/04/13 13:36:01;;;;;;;;;;;;;;;;;;5033530;28;93590;-79
2023/04/13 13:38:28;;;;;;;4.30;1.10;;;;;;;;;;5039272;27;113215;-80
2023/04/13 13:40:54;;;;;;;5.35;1.13;;;;;;;;;;5039915;27;95251;-80
2023/04/13 13:43:21;;;;;;;3.88;1.00;;;;;;;;;;5058871;27;92854;-80
2023/04/13 13:45:47;;;;;;;6.22;1.30;;;;;;;;;;5058856;27;91337;-80
2023/04/13 13:48:14;;;;;;;4.15;0.88;;;;;;;;;;5016215;27;94038;-79
2023/04/13 13:50:54;;;;;;;3.80;1.00;;;;;;;;;;5018472;28;94573;-80
2023/04/13 13:53:22;;;;;;;4.90;1.10;;;;;;;;;;5040588;27;96899;-80
2023/04/13 13:55:49;;;;;;;4.70;0.90;;;;;;;;;;5036657;27;97458;-79
2023/04/13 13:58:16;;;;;;;4.00;0.93;;;;;;;;;;5039827;27;92574;-80
2023/04/13 14:00:42;;;;;;;2.72;0.73;;;;;;;;;;5035450;27;92351;-81
2023/04/13 14:03:09;;;;;;;4.13;1.00;;;;;;;;;;5028740;28;93348;-79
2023/04/13 14:05:36;;;;;;;2.92;0.70;;;;;;;;;;5042741;28;92828;-80
2023/04/13 14:08:03;;;;;;;3.60;1.00;;;;;;;;;;5052908;27;92987;-81
2023/04/13 14:10:29;;;;;;;3.17;1.00;;;;;;;;;;5064541;27;92329;-80
2023/04/13 14:12:57;;;;;;;4.05;1.00;;;;;;;;;;5061225;27;92584;-80
2023/04/13 14:15:24;;;;;;;3.10;0.90;;;;;;;;;;5045833;27;94523;-79
2023/04/13 14:17:51;;;;;;;4.93;1.00;;;;;;;;;;5033654;27;94929;-79
2023/04/13 14:20:37;;;;;;;3.17;0.88;;;;;;;;;;5039113;27;101628;-80
2023/04/13 14:23:04;;;;;;;4.32;0.90;;;;;;;;;;5018428;28;94935;-79
2023/04/13 14:25:31;;;;;;;3.95;0.90;;;;;;;;;;5053253;27;92496;-78
2023/04/13 14:27:57;;;;;;;4.53;1.00;;;;;;;;;;5039665;27;92751;-79
2023/04/13 14:30:24;;;;;;;3.42;0.90;;;;;;;;;;5040306;27;93272;-79
2023/04/13 14:32:53;;;;;;;3.00;0.80;;;;;;;;;;5052568;27;92475;-79
2023/04/13 14:35:20;;;;;;;3.85;0.93;;;;;;;;;;5040588;27;92774;-80
2023/04/13 14:37:46;;;;;;;4.07;0.90;;;;;;;;;;5041218;27;92645;-80
2023/04/13 14:40:15;;;;;;;3.17;0.90;;;;;;;;;;5022605;27;95345;-79
2023/04/13 14:42:42;;;;;;;3.75;0.90;;;;;;;;;;5042904;27;96040;-80
2023/04/13 14:45:11;;;;;;;2.78;0.82;;;;;;;;;;5060123;27;93140;-79
2023/04/13 14:47:38;;;;;;;3.70;0.80;;;;;;;;;;5041511;27;95120;-79
2023/04/13 14:50:08;;;;;;;3.05;0.80;;;;;;;;;;5040267;27;95091;-82
2023/04/13 14:52:35;;;;;;;8.43;1.20;;;;;;;;;;5036408;27;92091;-81
2023/04/13 14:55:01;;;;;;;3.95;0.90;;;;;;;;;;5052496;27;92360;-80
2023/04/13 14:57:28;;;;;;;5.22;0.90;;;;;;;;;;5052667;27;93681;-80
2023/04/13 14:59:55;;;;;;;6.40;1.20;;;;;;;;;;5030937;28;91699;-81
2023/04/13 15:02:22;;;;;;;3.35;0.70;;;;;;;;;;5038453;27;93699;-81